Time;durP1;ratioP1;P1;durP2;ratioP2;P2;SDS_P1;SDS_P2;PMS_P1;PMS_P2;Temp;Humidity;BMP_temperature;BMP_pressure;BME280_temperature;BME280_humidity;BME280_pressure;Samples;Min_cycle;Max_cycle;Signal;HPM_P1;HPM_P2
2021/01/18 00:00:57;;;;;;;12.98;3.92;;;;;;;1.90;92.63;102444.88;4988281;28;20080;-77
2021/01/18 00:03:22;;;;;;;15.03;4.40;;;;;;;1.91;92.67;102444.13;4988458;28;20046;-79
2021/01/18 00:05:48;;;;;;;18.83;3.78;;;;;;;1.89;93.00;102444.00;4985138;28;20125;-78
2021/01/18 00:08:13;;;;;;;8.85;3.35;;;;;;;1.86;92.95;102447.16;4985276;28;20086;-78
2021/01/18 00:10:38;;;;;;;18.30;3.77;;;;;;;1.79;92.72;102447.41;4987066;28;20356;-79
2021/01/18 00:13:03;;;;;;;20.47;4.40;;;;;;;1.83;92.96;102444.38;5002460;28;20278;-78
2021/01/18 00:15:29;;;;;;;17.57;3.70;;;;;;;1.82;93.23;102445.13;4986851;28;20072;-79
2021/01/18 00:17:54;;;;;;;14.25;3.58;;;;;;;1.83;93.13;102441.84;4987797;28;20250;-77
2021/01/18 00:20:21;;;;;;;11.60;3.97;;;;;;;1.84;93.18;102433.47;4986846;28;20038;-78
2021/01/18 00:22:47;;;;;;;12.13;3.27;;;;;;;1.87;93.42;102433.72;4986237;28;20113;-78
2021/01/18 00:25:18;;;;;;;15.70;4.75;;;;;;;1.87;93.50;102431.19;4985145;28;20046;-78
2021/01/18 00:27:44;;;;;;;13.83;4.07;;;;;;;1.88;93.56;102427.91;4985425;28;20030;-79
2021/01/18 00:30:16;;;;;;;15.75;4.10;;;;;;;1.83;93.64;102429.16;4987669;28;20026;-77
2021/01/18 00:32:41;;;;;;;21.07;4.80;;;;;;;1.84;93.47;102430.06;4987671;28;20019;-78
2021/01/18 00:35:09;;;;;;;15.85;3.95;;;;;;;1.83;93.67;102429.16;5003413;28;20017;-77
2021/01/18 00:37:41;;;;;;;13.90;4.93;;;;;;;1.95;94.26;102426.78;4988539;28;20030;-79
2021/01/18 00:40:08;;;;;;;21.73;4.30;;;;;;;1.92;94.06;102425.63;4987702;28;20040;-78
2021/01/18 00:42:33;;;;;;;17.07;4.87;;;;;;;1.88;94.12;102417.78;5003177;28;20029;-79
2021/01/18 00:44:59;;;;;;;20.38;4.45;;;;;;;1.88;93.92;102409.28;4985598;28;20030;-78
2021/01/18 00:47:24;;;;;;;17.13;3.92;;;;;;;1.81;93.97;102405.34;4985569;28;20029;-79
2021/01/18 00:49:49;;;;;;;16.93;4.30;;;;;;;1.78;93.85;102394.97;4985658;28;20026;-80
2021/01/18 00:52:14;;;;;;;14.97;6.33;;;;;;;1.75;93.99;102393.81;4995910;28;20269;-78
2021/01/18 00:54:40;;;;;;;15.77;5.10;;;;;;;1.72;93.87;102394.47;4987970;28;20429;-77
2021/01/18 00:57:05;;;;;;;19.90;5.47;;;;;;;1.74;94.29;102392.94;4987488;28;20026;-77
2021/01/18 00:59:30;;;;;;;14.90;5.10;;;;;;;1.67;94.31;102390.66;4986487;28;20035;-79
2021/01/18 01:01:55;;;;;;;19.10;4.60;;;;;;;1.63;94.15;102393.69;4985137;28;20431;-77
2021/01/18 01:04:21;;;;;;;17.75;4.90;;;;;;;1.60;94.10;102398.47;4985342;28;20065;-78
2021/01/18 01:06:46;;;;;;;14.60;4.97;;;;;;;1.61;94.34;102399.38;4985893;28;20022;-78
2021/01/18 01:09:11;;;;;;;15.13;4.97;;;;;;;1.57;94.20;102393.16;5000300;28;20320;-79
2021/01/18 01:11:43;;;;;;;16.97;4.67;;;;;;;1.54;94.44;102395.44;4986517;28;20046;-78
2021/01/18 01:14:09;;;;;;;15.13;5.07;;;;;;;1.49;94.45;102391.63;4986689;28;21232;-79
2021/01/18 01:16:34;;;;;;;20.83;5.28;;;;;;;1.49;94.26;102396.69;4985114;28;20083;-78
2021/01/18 01:18:59;;;;;;;20.88;5.43;;;;;;;1.44;94.36;102392.88;4987103;28;20026;-78
2021/01/18 01:21:25;;;;;;;22.00;6.10;;;;;;;1.45;94.40;102394.66;4985046;28;20034;-78
2021/01/18 01:23:50;;;;;;;12.98;5.32;;;;;;;1.45;94.55;102393.03;4983672;28;20030;-78
2021/01/18 01:26:15;;;;;;;19.10;5.93;;;;;;;1.42;94.86;102392.75;4985621;28;20022;-78
2021/01/18 01:28:41;;;;;;;17.98;4.80;;;;;;;1.36;94.85;102384.66;4984434;28;20023;-78
2021/01/18 01:31:06;;;;;;;22.10;5.43;;;;;;;1.34;95.01;102391.22;4985760;28;20089;-79
2021/01/18 01:33:31;;;;;;;23.60;6.73;;;;;;;1.31;94.92;102398.56;4984362;28;20022;-79
2021/01/18 01:35:56;;;;;;;22.80;5.53;;;;;;;1.28;95.00;102393.22;4984493;28;20357;-78
2021/01/18 01:38:22;;;;;;;19.63;5.22;;;;;;;1.28;95.17;102392.31;4982159;28;20771;-77
2021/01/18 01:40:47;;;;;;;15.37;4.50;;;;;;;1.28;95.22;102399.91;5001303;28;20027;-78
2021/01/18 01:43:12;;;;;;;17.10;5.23;;;;;;;1.30;95.35;102395.88;4984180;28;20365;-78
2021/01/18 01:45:37;;;;;;;21.80;5.17;;;;;;;1.40;95.96;102398.44;4982960;28;20033;-78
2021/01/18 01:48:03;;;;;;;23.03;4.73;;;;;;;1.35;95.91;102395.53;4984309;28;20262;-78
2021/01/18 01:50:32;;;;;;;20.13;4.95;;;;;;;1.41;95.99;102385.03;4984767;28;20274;-78
2021/01/18 01:53:05;;;;;;;25.33;5.73;;;;;;;1.48;96.22;102392.38;4983669;28;20026;-78
2021/01/18 01:55:33;;;;;;;17.03;4.60;;;;;;;1.54;96.05;102390.38;4986689;28;20022;-77
2021/01/18 01:58:04;;;;;;;24.20;5.63;;;;;;;1.66;96.33;102396.47;4984749;28;20460;-78
2021/01/18 02:00:37;;;;;;;19.73;4.97;;;;;;;1.81;96.57;102394.34;4986155;28;20019;-77
2021/01/18 02:03:10;;;;;;;19.60;4.70;;;;;;;1.79;96.60;102394.22;4981323;28;20053;-78
2021/01/18 02:05:37;;;;;;;24.87;4.60;;;;;;;1.77;96.47;102398.25;4984901;28;20027;-77
2021/01/18 02:08:05;;;;;;;18.13;4.53;;;;;;;1.83;96.69;102396.22;4983270;28;20053;-79
2021/01/18 02:10:31;;;;;;;19.63;4.83;;;;;;;1.82;96.65;102397.00;4982113;28;20019;-78
2021/01/18 02:13:01;;;;;;;19.70;4.93;;;;;;;1.83;96.77;102396.22;4985536;28;20022;-80
2021/01/18 02:15:36;;;;;;;18.20;5.00;;;;;;;1.94;96.51;102402.19;4986351;28;20480;-78
2021/01/18 02:18:01;;;;;;;17.27;3.67;;;;;;;1.92;96.73;102402.81;4982805;28;20034;-78
2021/01/18 02:20:52;;;;;;;21.57;4.30;;;;;;;2.05;97.10;102398.03;4983897;28;20019;-78
2021/01/18 02:23:52;;;;;;;15.63;5.50;;;;;;;1.96;96.62;102395.63;4981668;28;20049;-80
2021/01/18 02:26:36;;;;;;;24.97;5.03;;;;;;;1.90;96.74;102404.34;4982967;28;20643;-78
2021/01/18 02:29:41;;;;;;;25.17;4.77;;;;;;;1.87;96.70;102403.31;4997371;28;20022;-76
2021/01/18 02:32:31;;;;;;;23.97;4.80;;;;;;;1.87;96.62;102402.44;4948883;28;20431;-79
2021/01/18 02:35:20;;;;;;;17.57;4.17;;;;;;;1.89;96.70;102403.44;5003461;28;20041;-78
2021/01/18 02:38:10;;;;;;;20.73;4.93;;;;;;;1.90;96.32;102399.28;4992070;28;20022;-79
2021/01/18 02:40:49;;;;;;;16.70;5.47;;;;;;;1.98;96.93;102393.22;4986841;28;20054;-77
2021/01/18 02:43:18;;;;;;;25.80;5.70;;;;;;;2.00;96.81;102394.22;4990413;28;20026;-77
2021/01/18 02:45:45;;;;;;;20.53;4.33;;;;;;;2.07;96.82;102393.97;4988566;28;20380;-79
2021/01/18 02:48:12;;;;;;;23.50;5.33;;;;;;;2.26;96.89;102397.22;5007187;28;20595;-78
2021/01/18 02:50:38;;;;;;;26.40;5.83;;;;;;;2.19;97.01;102389.91;4990604;28;20117;-80
2021/01/18 02:53:04;;;;;;;;;;;;;;;2.27;97.06;102388.88;4989825;28;20026;-77
2021/01/18 02:55:29;;;;;;;24.13;5.00;;;;;;;2.17;96.72;102386.34;4989601;28;19910;-78
2021/01/18 02:58:01;;;;;;;19.52;5.25;;;;;;;2.16;96.96;102393.06;4986726;28;20394;-78
2021/01/18 03:00:32;;;;;;;22.83;5.30;;;;;;;2.15;96.89;102388.75;4988240;28;20018;-77
2021/01/18 03:03:09;;;;;;;21.67;5.27;;;;;;;2.17;96.51;102383.81;4990639;28;20026;-77
2021/01/18 03:05:56;;;;;;;11.98;4.43;;;;;;;2.13;96.93;102382.69;5007689;28;20133;-78
2021/01/18 03:08:55;;;;;;;31.30;5.70;;;;;;;2.24;96.66;102373.41;4990539;28;20029;-78
2021/01/18 03:11:31;;;;;;;30.93;5.50;;;;;;;2.19;96.81;102377.22;4990321;28;20641;-77
2021/01/18 03:14:02;;;;;;;26.48;6.47;;;;;;;2.29;96.81;102372.16;4991086;28;20106;-78
2021/01/18 03:16:35;;;;;;;24.20;5.67;;;;;;;2.33;96.86;102376.72;4988354;28;20018;-77
2021/01/18 03:19:03;;;;;;;24.03;5.93;;;;;;;2.39;96.93;102374.66;5004540;28;20471;-78
2021/01/18 03:21:29;;;;;;;25.90;6.60;;;;;;;2.37;96.84;102371.13;4986291;28;20030;-78
2021/01/18 03:23:54;;;;;;;18.97;5.50;;;;;;;2.33;96.88;102378.34;4991311;28;20031;-77
2021/01/18 03:26:23;;;;;;;28.13;5.93;;;;;;;2.28;96.79;102383.06;4992375;28;20024;-78
2021/01/18 03:28:49;;;;;;;35.07;6.57;;;;;;;2.26;96.60;102373.53;4990062;28;20274;-78
2021/01/18 03:31:14;;;;;;;34.22;7.30;;;;;;;2.27;96.82;102368.56;4993261;28;20050;-78
2021/01/18 03:33:39;;;;;;;26.00;6.47;;;;;;;2.22;96.51;102362.25;4991782;28;20045;-78
2021/01/18 03:36:05;;;;;;;20.93;6.57;;;;;;;2.26;96.74;102366.81;5004070;28;20097;-78
2021/01/18 03:38:30;;;;;;;28.42;7.07;;;;;;;2.44;96.87;102359.81;4989710;28;20042;-79
2021/01/18 03:40:56;;;;;;;35.58;8.25;;;;;;;2.45;96.74;102357.41;4991692;28;20045;-76
2021/01/18 03:43:22;;;;;;;31.23;7.63;;;;;;;2.45;96.81;102362.47;4987411;28;20033;-78
2021/01/18 03:45:48;;;;;;;31.92;7.13;;;;;;;2.40;96.67;102366.28;4984676;28;20029;-78
2021/01/18 03:48:13;;;;;;;34.00;6.85;;;;;;;2.42;96.82;102362.22;4988854;28;20023;-80
2021/01/18 03:50:40;;;;;;;32.55;7.00;;;;;;;2.45;96.95;102349.78;4987554;28;20042;-78
2021/01/18 03:53:06;;;;;;;26.27;7.10;;;;;;;2.46;96.91;102351.56;4988750;28;20054;-78
2021/01/18 03:55:31;;;;;;;34.28;7.38;;;;;;;2.44;96.94;102348.03;4985794;28;20021;-77
2021/01/18 03:57:57;;;;;;;33.35;7.10;;;;;;;2.43;96.93;102343.72;5003315;28;20023;-78
2021/01/18 04:00:28;;;;;;;28.30;6.25;;;;;;;2.43;96.93;102346.25;5002476;28;20118;-78
2021/01/18 04:02:54;;;;;;;29.27;7.27;;;;;;;2.36;96.74;102344.00;4985882;28;20101;-77
2021/01/18 04:05:20;;;;;;;24.20;7.85;;;;;;;2.35;96.76;102346.41;4986442;28;20023;-78
2021/01/18 04:07:47;;;;;;;36.00;7.57;;;;;;;2.33;97.07;102346.28;4983731;28;20041;-78
2021/01/18 04:10:16;;;;;;;28.03;6.83;;;;;;;2.33;96.83;102338.69;4983744;28;20026;-78
2021/01/18 04:12:43;;;;;;;25.53;7.10;;;;;;;2.25;96.99;102342.22;4981787;28;20050;-79
2021/01/18 04:15:10;;;;;;;34.47;8.67;;;;;;;2.26;96.90;102349.06;4984215;28;20025;-78
2021/01/18 04:17:35;;;;;;;40.87;8.10;;;;;;;2.29;96.83;102339.19;4984651;28;20098;-79
2021/01/18 04:20:02;;;;;;;28.17;6.95;;;;;;;2.21;97.05;102335.13;4981774;28;20676;-78
2021/01/18 04:22:28;;;;;;;30.67;7.50;;;;;;;2.16;97.06;102342.38;4999404;28;20038;-80
2021/01/18 04:24:53;;;;;;;30.50;7.70;;;;;;;2.16;97.33;102338.94;4985004;28;20214;-79
2021/01/18 04:27:18;;;;;;;28.40;6.63;;;;;;;2.11;96.97;102341.13;4989136;28;20025;-78
2021/01/18 04:29:43;;;;;;;34.70;8.00;;;;;;;2.13;96.87;102338.69;4998609;28;20579;-77
2021/01/18 04:32:11;;;;;;;30.37;6.73;;;;;;;2.11;97.24;102333.50;4984033;28;20030;-78
2021/01/18 04:34:37;;;;;;;31.37;6.93;;;;;;;2.14;97.39;102335.41;4983801;28;20269;-78
2021/01/18 04:37:02;;;;;;;27.92;7.05;;;;;;;2.09;97.35;102329.06;4987263;28;20026;-78
2021/01/18 04:39:27;;;;;;;36.33;6.95;;;;;;;2.06;97.30;102328.84;4985469;28;20026;-78
2021/01/18 04:41:53;;;;;;;27.45;6.65;;;;;;;2.02;97.34;102329.34;4986126;28;20026;-77
2021/01/18 04:44:19;;;;;;;27.15;6.30;;;;;;;1.97;97.37;102334.03;4984152;28;20038;-79
2021/01/18 04:46:46;;;;;;;30.70;7.40;;;;;;;1.99;97.70;102331.63;4985492;28;20104;-77
2021/01/18 04:49:12;;;;;;;27.17;6.97;;;;;;;1.94;97.36;102331.22;4998699;28;20030;-78
2021/01/18 04:51:55;;;;;;;26.07;7.00;;;;;;;1.96;97.56;102326.31;5002982;28;20472;-78
2021/01/18 04:54:24;;;;;;;34.07;7.10;;;;;;;2.00;97.59;102318.19;5001742;28;20077;-78
2021/01/18 04:57:18;;;;;;;25.77;7.20;;;;;;;1.99;97.68;102308.81;5023189;23;20142;-79
2021/01/18 04:59:48;;;;;;;34.47;7.73;;;;;;;1.95;97.71;102317.84;5016468;28;20022;-79
2021/01/18 05:02:22;;;;;;;34.00;9.73;;;;;;;1.94;97.61;102307.53;5024742;28;20464;-80
2021/01/18 05:04:48;;;;;;;26.23;7.27;;;;;;;1.97;97.90;102310.34;5031326;28;20036;-80
2021/01/18 05:07:22;;;;;;;27.37;7.47;;;;;;;2.04;97.97;102316.03;5045270;28;20494;-80
2021/01/18 05:09:58;;;;;;;37.80;7.67;;;;;;;2.13;98.04;102318.41;5054439;28;20103;-80
2021/01/18 05:12:23;;;;;;;30.97;8.03;;;;;;;2.19;98.17;102313.84;5048793;28;20017;-80
2021/01/18 05:14:48;;;;;;;33.85;7.90;;;;;;;2.35;98.06;102308.38;5033434;28;20013;-79
2021/01/18 05:17:38;;;;;;;35.40;7.43;;;;;;;2.38;98.06;102306.97;5038478;28;20060;-80
2021/01/18 05:20:04;;;;;;;35.73;7.13;;;;;;;2.39;98.19;102298.59;5044988;28;20276;-79
2021/01/18 05:22:29;;;;;;;48.00;8.50;;;;;;;2.36;98.16;102302.53;5043592;28;20042;-80
2021/01/18 05:24:55;;;;;;;28.43;6.47;;;;;;;2.37;98.13;102296.69;5046610;28;20016;-80
2021/01/18 05:27:20;;;;;;;22.92;7.07;;;;;;;2.41;98.00;102297.06;5046078;28;20331;-80
2021/01/18 05:29:55;;;;;;;30.73;6.87;;;;;;;2.40;98.22;102297.81;5042067;28;20565;-79
2021/01/18 05:32:23;;;;;;;34.70;6.97;;;;;;;2.41;98.09;102291.09;5040683;28;20322;-79
2021/01/18 05:34:49;;;;;;;35.10;6.73;;;;;;;2.47;98.19;102286.50;5039970;28;20009;-79
2021/01/18 05:37:14;;;;;;;39.40;8.32;;;;;;;2.47;98.13;102282.31;5036319;28;20075;-79
2021/01/18 05:39:39;;;;;;;28.83;6.60;;;;;;;2.62;98.08;102286.84;5046850;28;20035;-80
2021/01/18 05:42:18;;;;;;;35.50;6.53;;;;;;;2.59;98.18;102277.31;5048386;28;20347;-80
2021/01/18 05:44:43;;;;;;;27.43;6.47;;;;;;;2.59;98.01;102278.97;5047413;28;20430;-80
2021/01/18 05:47:10;;;;;;;27.48;6.13;;;;;;;2.63;97.73;102279.34;5049682;28;20013;-78
2021/01/18 05:49:41;;;;;;;33.60;7.43;;;;;;;2.65;98.01;102271.88;5051860;28;20047;-79
2021/01/18 05:52:31;;;;;;;29.47;6.87;;;;;;;2.80;97.88;102278.13;5043779;28;20063;-79
2021/01/18 05:55:16;;;;;;;27.17;6.37;;;;;;;2.74;97.54;102277.66;5042861;28;20021;-79
2021/01/18 05:57:54;;;;;;;26.50;6.30;;;;;;;2.73;97.60;102281.84;5039660;28;20017;-81
2021/01/18 06:00:24;;;;;;;20.13;6.60;;;;;;;2.76;97.41;102283.72;5053372;28;20060;-81
2021/01/18 06:02:50;;;;;;;31.60;6.17;;;;;;;2.80;97.25;102281.53;5045496;28;20096;-79
2021/01/18 06:05:16;;;;;;;30.05;6.63;;;;;;;2.82;97.35;102279.13;5038283;28;20025;-77
2021/01/18 06:07:42;;;;;;;29.48;6.55;;;;;;;2.83;97.24;102277.47;5037913;28;20027;-79
2021/01/18 06:10:07;;;;;;;22.88;6.03;;;;;;;2.88;97.44;102282.13;5032782;28;20374;-79
2021/01/18 06:12:33;;;;;;;31.02;6.53;;;;;;;2.91;97.14;102287.44;5044468;28;20027;-79
2021/01/18 06:15:10;;;;;;;37.67;7.63;;;;;;;2.94;97.06;102287.69;5037428;28;20048;-79
2021/01/18 06:17:37;;;;;;;24.85;5.75;;;;;;;2.91;96.89;102287.44;5043253;28;20072;-79
2021/01/18 06:20:05;;;;;;;20.97;6.07;;;;;;;2.93;96.78;102283.41;5047264;28;20096;-80
2021/01/18 06:22:30;;;;;;;22.73;5.90;;;;;;;2.98;96.67;102281.22;5051969;28;20020;-81
2021/01/18 06:24:56;;;;;;;23.70;5.40;;;;;;;2.98;96.62;102284.63;5052427;28;20081;-80
2021/01/18 06:27:34;;;;;;;28.77;5.13;;;;;;;2.91;96.31;102282.34;5052559;28;20259;-80
2021/01/18 06:29:59;;;;;;;35.77;7.13;;;;;;;2.92;96.57;102284.13;5038656;28;20021;-80
2021/01/18 06:32:29;;;;;;;33.28;6.20;;;;;;;2.91;96.63;102276.41;5052210;28;20490;-79
2021/01/18 06:35:03;;;;;;;27.97;6.17;;;;;;;2.94;96.57;102280.09;5051561;28;20017;-80
2021/01/18 06:37:30;;;;;;;32.20;5.40;;;;;;;2.97;96.36;102279.44;5044705;28;20020;-82
2021/01/18 06:39:59;;;;;;;27.23;5.70;;;;;;;2.93;96.47;102275.78;5042177;28;20024;-81
2021/01/18 06:42:25;;;;;;;24.20;5.80;;;;;;;2.96;96.67;102276.00;5038267;28;20021;-79
2021/01/18 06:44:51;;;;;;;34.33;5.50;;;;;;;2.96;96.46;102276.00;5041319;28;20030;-79
2021/01/18 06:47:27;;;;;;;17.63;5.17;;;;;;;2.93;96.57;102275.78;5042483;28;20048;-80
2021/01/18 06:49:55;;;;;;;20.77;4.85;;;;;;;2.94;96.66;102269.06;5044089;28;20040;-79
2021/01/18 06:52:29;;;;;;;27.93;5.70;;;;;;;3.03;96.55;102268.09;5048427;28;20025;-79
2021/01/18 06:55:02;;;;;;;24.73;5.30;;;;;;;2.95;96.28;102269.16;5049573;28;20029;-80
2021/01/18 06:57:45;;;;;;;23.53;5.57;;;;;;;2.89;96.46;102263.59;5040570;28;20057;-80
2021/01/18 07:00:18;;;;;;;29.57;4.43;;;;;;;2.98;96.46;102265.97;5041297;28;20620;-79
2021/01/18 07:02:54;;;;;;;22.97;4.53;;;;;;;2.91;96.61;102271.31;5039487;28;20375;-78
2021/01/18 07:05:41;;;;;;;31.10;5.32;;;;;;;2.92;96.60;102263.81;5041123;28;20079;-79
2021/01/18 07:08:17;;;;;;;19.75;3.63;;;;;;;2.91;96.51;102262.06;5042039;28;20039;-79
2021/01/18 07:10:48;;;;;;;29.15;4.97;;;;;;;2.92;96.44;102262.94;5048084;28;20418;-79
2021/01/18 07:13:16;;;;;;;27.70;5.67;;;;;;;2.91;96.50;102267.13;5053573;28;20025;-79
2021/01/18 07:15:42;;;;;;;21.43;5.53;;;;;;;2.88;96.47;102271.09;5050423;28;20124;-81
2021/01/18 07:18:10;;;;;;;31.88;5.88;;;;;;;2.98;96.53;102266.88;5051237;28;20146;-79
2021/01/18 07:20:46;;;;;;;26.40;5.30;;;;;;;2.96;96.26;102270.94;5047188;28;20056;-80
2021/01/18 07:23:12;;;;;;;29.75;6.20;;;;;;;2.98;96.38;102260.91;5054244;28;20395;-79
2021/01/18 07:25:44;;;;;;;;;;;;;;;3.05;96.08;102271.63;5058104;28;20032;-80
2021/01/18 07:28:19;;;;;;;26.50;5.30;;;;;;;3.02;96.36;102260.38;5058544;28;20270;-80
2021/01/18 07:30:45;;;;;;;27.70;5.73;;;;;;;3.08;96.33;102271.88;5048588;28;20017;-80
2021/01/18 07:33:15;;;;;;;31.13;7.05;;;;;;;3.04;96.40;102272.41;5052130;28;20044;-81
2021/01/18 07:35:41;;;;;;;25.73;6.80;;;;;;;3.10;96.22;102282.13;5044882;28;20026;-79
2021/01/18 07:38:13;;;;;;;30.07;7.00;;;;;;;3.07;96.25;102282.78;5059941;28;20390;-79
2021/01/18 07:40:40;;;;;;;30.67;7.63;;;;;;;3.31;96.13;102285.44;5049494;28;20031;-79
2021/01/18 07:43:06;;;;;;;31.30;7.20;;;;;;;3.25;95.81;102287.47;5043906;28;20063;-79
2021/01/18 07:45:32;;;;;;;31.48;7.25;;;;;;;3.22;96.34;102289.78;5043993;28;20017;-80
2021/01/18 07:47:57;;;;;;;30.40;7.38;;;;;;;3.26;96.36;102284.22;5046442;28;20030;-80
2021/01/18 07:50:33;;;;;;;32.77;8.13;;;;;;;3.34;96.33;102288.19;5046077;28;20025;-80
2021/01/18 07:53:00;;;;;;;39.85;9.20;;;;;;;3.28;96.21;102288.63;5053064;28;20017;-80
2021/01/18 07:55:26;;;;;;;32.60;8.60;;;;;;;3.40;96.24;102281.03;5057332;28;20021;-80
2021/01/18 07:57:51;;;;;;;26.05;7.55;;;;;;;3.32;95.97;102290.63;5062415;28;20036;-81
2021/01/18 08:00:16;;;;;;;38.83;9.52;;;;;;;3.36;95.76;102289.19;5044209;28;20053;-79
2021/01/18 08:02:42;;;;;;;33.67;8.30;;;;;;;3.34;95.89;102285.66;5041649;28;20071;-79
2021/01/18 08:05:24;;;;;;;21.67;7.50;;;;;;;3.39;95.64;102290.31;5042356;28;20108;-80
2021/01/18 08:08:28;;;;;;;32.83;8.20;;;;;;;3.32;95.85;102292.28;5045265;28;20027;-81
2021/01/18 08:10:53;;;;;;;35.97;8.00;;;;;;;3.28;95.98;102291.16;5046636;28;20037;-81
2021/01/18 08:13:40;;;;;;;29.88;7.60;;;;;;;3.41;95.86;102287.91;5058508;28;20016;-80
2021/01/18 08:16:15;;;;;;;24.17;6.47;;;;;;;3.33;95.78;102287.31;5039747;28;20029;-79
2021/01/18 08:18:59;;;;;;;29.87;6.53;;;;;;;3.34;96.01;102290.75;5056556;28;20040;-78
2021/01/18 08:21:33;;;;;;;35.00;7.73;;;;;;;3.39;95.98;102289.44;5045520;28;20020;-79
2021/01/18 08:23:59;;;;;;;34.20;6.27;;;;;;;3.49;95.76;102285.91;5038645;28;20029;-81
2021/01/18 08:26:24;;;;;;;35.30;6.78;;;;;;;3.58;95.68;102290.06;5059092;28;20033;-81
2021/01/18 08:28:50;;;;;;;30.50;6.35;;;;;;;3.59;95.34;102284.19;5053129;28;20108;-80
2021/01/18 08:31:15;;;;;;;28.85;6.97;;;;;;;3.61;95.38;102286.84;5059755;28;20026;-81
2021/01/18 08:33:40;;;;;;;35.13;7.00;;;;;;;3.61;95.27;102290.28;5058659;28;20025;-81
2021/01/18 08:36:06;;;;;;;29.30;6.15;;;;;;;3.68;95.12;102292.50;5051718;28;20020;-81
2021/01/18 08:38:31;;;;;;;32.38;5.97;;;;;;;3.65;95.11;102294.81;5055431;28;20060;-80
2021/01/18 08:41:07;;;;;;;16.95;6.18;;;;;;;3.73;94.89;102292.84;5047706;28;20471;-82
2021/01/18 08:43:52;;;;;;;24.05;5.82;;;;;;;3.70;94.89;102290.97;5061931;28;20052;-81
2021/01/18 08:46:35;;;;;;;31.77;6.57;;;;;;;3.81;94.69;102291.75;5057975;28;20048;-81
2021/01/18 08:49:33;;;;;;;19.70;5.77;;;;;;;3.72;94.88;102291.06;5057335;28;20033;-82
2021/01/18 08:52:00;;;;;;;33.27;6.73;;;;;;;3.75;94.83;102287.09;5015063;28;20033;-81
2021/01/18 08:54:37;;;;;;;24.83;7.20;;;;;;;3.87;94.76;102276.94;5059949;28;20032;-81
2021/01/18 08:57:23;;;;;;;37.13;8.80;;;;;;;3.82;94.12;102283.34;5065068;28;20028;-81
2021/01/18 09:00:09;;;;;;;27.83;5.40;;;;;;;3.88;94.40;102286.34;5062825;28;20024;-82
2021/01/18 09:02:36;;;;;;;32.80;7.00;;;;;;;3.89;94.18;102277.03;5050774;28;20519;-80
2021/01/18 09:05:22;;;;;;;26.48;6.50;;;;;;;3.99;93.75;102269.34;5055550;28;20325;-80
2021/01/18 09:07:49;;;;;;;30.73;6.43;;;;;;;4.03;93.67;102274.75;5046133;28;20045;-80
2021/01/18 09:10:19;;;;;;;26.37;5.87;;;;;;;4.11;93.41;102262.59;5051845;28;20079;-82
2021/01/18 09:12:45;;;;;;;26.30;7.17;;;;;;;4.15;93.12;102258.59;5053738;28;20123;-81
2021/01/18 09:15:11;;;;;;;22.40;5.23;;;;;;;4.19;93.23;102256.38;5052687;28;20013;-80
2021/01/18 09:17:37;;;;;;;24.20;5.50;;;;;;;4.20;92.93;102253.06;5048231;28;20025;-80
2021/01/18 09:20:04;;;;;;;22.75;5.85;;;;;;;4.22;92.85;102251.53;5059290;28;20383;-82
2021/01/18 09:22:31;;;;;;;20.07;5.33;;;;;;;4.29;92.69;102243.56;5055932;28;20017;-81
2021/01/18 09:24:57;;;;;;;28.57;6.60;;;;;;;4.29;92.92;102252.88;5059697;28;20453;-80
2021/01/18 09:27:23;;;;;;;22.90;6.07;;;;;;;4.35;92.48;102249.09;5066472;28;20032;-79
2021/01/18 09:30:04;;;;;;;18.27;5.33;;;;;;;4.36;92.25;102247.44;5068274;28;20278;-79
2021/01/18 09:32:29;;;;;;;19.83;4.83;;;;;;;4.37;92.39;102242.47;5057666;28;20052;-80
2021/01/18 09:35:07;;;;;;;23.23;5.60;;;;;;;4.36;92.44;102238.16;5060945;28;20063;-79
2021/01/18 09:37:32;;;;;;;21.83;5.20;;;;;;;4.29;92.14;102237.59;5045332;28;20059;-81
2021/01/18 09:39:58;;;;;;;20.17;4.63;;;;;;;4.45;91.96;102226.84;5039888;28;20033;-81
2021/01/18 09:42:25;;;;;;;34.10;5.10;;;;;;;4.46;91.79;102226.06;5053710;28;20286;-81
2021/01/18 09:44:52;;;;;;;21.40;4.97;;;;;;;4.50;91.49;102220.41;5049291;28;20299;-84
2021/01/18 09:47:17;;;;;;;22.57;5.20;;;;;;;4.61;91.22;102227.16;5047105;28;20030;-85
2021/01/18 09:49:43;;;;;;;19.35;4.32;;;;;;;4.61;91.44;102227.16;5046636;28;20035;-83
2021/01/18 09:52:08;;;;;;;24.52;6.07;;;;;;;4.58;91.67;102226.94;5049786;28;20021;-85
2021/01/18 09:54:40;;;;;;;24.15;4.57;;;;;;;4.63;91.24;102206.13;5049217;28;20029;-84
2021/01/18 09:57:18;;;;;;;18.10;5.03;;;;;;;4.63;90.83;102210.31;5046795;28;20035;-83
2021/01/18 09:59:45;;;;;;;29.93;5.33;;;;;;;4.59;91.50;102221.97;5045645;28;20032;-83
2021/01/18 10:02:16;;;;;;;21.93;5.37;;;;;;;4.59;91.29;102210.91;5049502;28;20029;-84
2021/01/18 10:04:47;;;;;;;24.67;4.73;;;;;;;4.61;90.93;102211.88;5046640;28;20033;-83
2021/01/18 10:07:18;;;;;;;23.07;5.47;;;;;;;4.73;90.49;102222.03;5044535;28;20025;-83
2021/01/18 10:09:54;;;;;;;29.97;5.33;;;;;;;4.87;90.26;102219.63;5048002;28;20045;-83
2021/01/18 10:12:26;;;;;;;17.40;5.05;;;;;;;4.79;90.39;102224.97;5057855;28;20033;-82
2021/01/18 10:14:59;;;;;;;22.03;5.93;;;;;;;4.94;90.02;102219.28;5050116;28;20021;-83
2021/01/18 10:17:51;;;;;;;27.67;5.37;;;;;;;5.01;89.68;102223.13;5049346;28;20516;-82
2021/01/18 10:20:30;;;;;;;23.57;5.10;;;;;;;5.10;89.88;102222.88;5049948;28;20036;-81
2021/01/18 10:22:58;;;;;;;21.67;5.37;;;;;;;5.05;88.92;102224.22;5048314;28;20029;-82
2021/01/18 10:25:30;;;;;;;23.10;5.43;;;;;;;5.13;89.19;102217.97;5042194;28;20014;-81
2021/01/18 10:28:24;;;;;;;19.57;5.17;;;;;;;5.15;89.20;102224.06;5042077;28;20029;-83
2021/01/18 10:31:29;;;;;;;25.37;4.63;;;;;;;5.15;89.40;102219.84;5045151;28;20021;-82
2021/01/18 10:34:35;;;;;;;26.50;5.13;;;;;;;5.18;89.03;102214.06;5026824;28;20729;-81
2021/01/18 10:37:20;;;;;;;27.67;4.97;;;;;;;5.25;89.10;102217.16;5052527;28;20059;-82
2021/01/18 10:40:02;;;;;;;21.40;5.17;;;;;;;5.39;89.00;102214.63;5053794;28;20035;-82
2021/01/18 10:42:27;;;;;;;21.93;4.67;;;;;;;5.37;88.42;102209.44;5043068;28;20024;-83
2021/01/18 10:44:54;;;;;;;21.10;4.38;;;;;;;5.33;88.93;102210.00;5052573;28;20163;-83
2021/01/18 10:47:21;;;;;;;23.50;5.27;;;;;;;5.33;88.62;102210.00;5049710;28;20020;-82
2021/01/18 10:49:51;;;;;;;26.07;4.73;;;;;;;5.31;88.82;102203.94;5053519;28;20442;-83
2021/01/18 10:52:17;;;;;;;18.40;4.37;;;;;;;5.32;88.91;102198.94;5056576;28;20028;-82
2021/01/18 10:54:57;;;;;;;14.90;3.87;;;;;;;5.32;88.80;102198.94;5053765;28;20013;-80
2021/01/18 10:57:23;;;;;;;25.13;4.37;;;;;;;5.44;88.29;102192.88;5056697;28;20021;-81
2021/01/18 11:00:11;;;;;;;18.10;4.28;;;;;;;5.50;87.55;102186.50;5054913;28;20109;-79
2021/01/18 11:02:37;;;;;;;21.50;4.53;;;;;;;5.54;88.34;102179.97;5052364;28;20033;-81
2021/01/18 11:05:04;;;;;;;23.63;5.20;;;;;;;5.46;88.41;102181.13;5056815;28;20049;-80
2021/01/18 11:07:30;;;;;;;28.88;5.30;;;;;;;5.35;89.37;102180.44;5061641;28;20033;-82
2021/01/18 11:09:59;;;;;;;;;;;;;;;5.47;89.40;102180.34;5056862;28;20045;-82
2021/01/18 11:12:38;;;;;;;19.53;4.50;;;;;;;5.62;88.66;102176.25;5054356;28;19928;-82
2021/01/18 11:15:05;;;;;;;15.60;4.20;;;;;;;5.63;88.28;102176.34;5057632;28;20105;-81
2021/01/18 11:17:31;;;;;;;26.37;4.87;;;;;;;5.71;88.71;102170.84;5060139;28;20491;-82
2021/01/18 11:19:57;;;;;;;16.17;3.65;;;;;;;5.79;87.77;102174.78;5056607;28;20030;-81
2021/01/18 11:22:22;;;;;;;17.17;4.38;;;;;;;5.82;87.72;102165.66;5057065;28;20096;-84
2021/01/18 11:24:48;;;;;;;22.48;4.40;;;;;;;5.88;86.71;102172.84;5051986;28;20025;-83
2021/01/18 11:27:14;;;;;;;22.35;4.82;;;;;;;5.87;87.10;102174.50;5056331;28;20025;-82
2021/01/18 11:29:39;;;;;;;30.42;5.15;;;;;;;6.23;87.86;102173.41;5052058;28;20025;-83
2021/01/18 11:32:05;;;;;;;16.08;3.67;;;;;;;6.63;85.84;102180.97;5057396;28;20029;-82
2021/01/18 11:37:12;;;;;;;13.10;3.20;;;;;;;7.31;82.41;102181.63;5041207;28;20303;-78
2021/01/18 11:39:38;;;;;;;20.63;3.93;;;;;;;7.58;81.88;102172.13;5044969;28;20041;-77
2021/01/18 11:42:04;;;;;;;;;;;;;;;7.74;80.40;102164.50;5029717;28;20691;-76
2021/01/18 11:44:30;;;;;;;20.23;3.60;;;;;;;8.39;78.20;102174.06;5058048;28;19928;-76